Time;durP1;ratioP1;P1;durP2;ratioP2;P2;SDS_P1;SDS_P2;PMS_P1;PMS_P2;Temp;Humidity;BMP_temperature;BMP_pressure;BME280_temperature;BME280_humidity;BME280_pressure;Samples;Min_cycle;Max_cycle;Signal;HPM_P1;HPM_P2
2023/01/29 00:01:10;;;;;;;26.02;13.57;;;;;;;0.59;77.34;103002.16;5033344;28;20033;-61
2023/01/29 00:03:36;;;;;;;21.70;12.77;;;;;;;0.62;78.13;103004.13;5033398;28;20383;-62
2023/01/29 00:06:06;;;;;;;26.95;13.10;;;;;;;0.75;77.88;103005.31;5033367;28;20414;-62
2023/01/29 00:08:33;;;;;;;25.13;12.30;;;;;;;0.92;77.22;103004.13;5033213;28;20461;-62
2023/01/29 00:11:06;;;;;;;24.60;12.98;;;;;;;0.99;76.74;102995.16;5015503;28;20032;-62
2023/01/29 00:13:35;;;;;;;24.02;12.90;;;;;;;0.98;77.09;102994.22;5032933;28;20045;-62
2023/01/29 00:16:01;;;;;;;23.88;12.68;;;;;;;0.94;76.75;102992.19;5033246;28;20479;-62
2023/01/29 00:18:28;;;;;;;25.25;13.13;;;;;;;0.87;77.16;102995.03;5033181;28;20091;-63
2023/01/29 00:20:53;;;;;;;23.67;12.68;;;;;;;0.88;76.83;102990.72;5033086;28;20376;-62
2023/01/29 00:23:19;;;;;;;22.15;12.55;;;;;;;0.87;76.96;102984.63;5033308;28;20094;-62
2023/01/29 00:25:45;;;;;;;22.65;12.43;;;;;;;0.99;76.73;102987.34;5033012;28;20426;-62
2023/01/29 00:28:11;;;;;;;22.77;12.50;;;;;;;1.03;76.91;102980.69;5033055;28;20093;-62
2023/01/29 00:30:36;;;;;;;22.95;12.27;;;;;;;0.96;77.13;102974.06;5032798;28;20371;-62
2023/01/29 00:33:02;;;;;;;24.60;12.63;;;;;;;0.91;77.77;102978.00;5032963;28;20034;-62
2023/01/29 00:35:28;;;;;;;25.02;12.10;;;;;;;0.95;77.40;102974.88;5033013;28;20022;-63
2023/01/29 00:37:54;;;;;;;23.98;12.32;;;;;;;0.99;77.55;102976.94;5033190;28;20474;-62
2023/01/29 00:40:21;;;;;;;24.30;12.32;;;;;;;0.99;77.07;102976.94;5032833;28;20021;-62
2023/01/29 00:45:31;;;;;;;21.05;11.95;;;;;;;0.72;78.16;102967.69;5033179;28;20087;-62
2023/01/29 00:47:56;;;;;;;24.55;12.27;;;;;;;0.63;79.08;102966.94;5032945;28;20025;-62
2023/01/29 00:50:22;;;;;;;23.40;12.82;;;;;;;0.50;79.07;102955.47;5015328;28;20068;-62
2023/01/29 00:52:48;;;;;;;22.35;12.65;;;;;;;0.53;80.17;102946.13;5032801;28;20025;-62
2023/01/29 00:55:14;;;;;;;23.60;12.45;;;;;;;0.53;79.52;102948.72;5032791;28;20028;-62
2023/01/29 00:57:39;;;;;;;22.98;12.43;;;;;;;0.52;79.82;102939.13;5034701;28;20022;-62
2023/01/29 01:00:08;;;;;;;23.08;12.55;;;;;;;0.50;80.29;102944.16;5036715;28;20524;-62
2023/01/29 01:05:18;;;;;;;23.40;12.18;;;;;;;0.56;79.14;102935.97;5037031;28;20052;-62
2023/01/29 01:07:48;;;;;;;22.27;12.30;;;;;;;0.50;80.27;102934.66;5036695;28;20112;-61
2023/01/29 01:10:26;;;;;;;21.83;12.30;;;;;;;0.42;80.33;102940.91;5036606;28;20025;-62
2023/01/29 01:13:09;;;;;;;24.20;12.50;;;;;;;0.42;79.89;102945.19;5036879;28;20029;-62
2023/01/29 01:15:37;;;;;;;21.23;11.60;;;;;;;0.44;80.14;102946.25;5036364;28;20142;-62
2023/01/29 01:18:04;;;;;;;22.73;11.95;;;;;;;0.50;79.92;102944.16;5036403;28;20075;-62
2023/01/29 01:20:32;;;;;;;23.52;12.52;;;;;;;0.57;79.06;102949.13;5036526;28;20032;-62
2023/01/29 01:22:58;;;;;;;22.15;11.98;;;;;;;0.58;78.98;102940.53;5018545;28;20025;-62
2023/01/29 01:25:25;;;;;;;21.88;11.57;;;;;;;0.52;78.84;102940.03;5036292;28;20036;-62
2023/01/29 01:27:52;;;;;;;20.27;11.50;;;;;;;0.54;79.22;102929.75;5018500;28;20032;-62
2023/01/29 01:30:17;;;;;;;21.88;12.18;;;;;;;0.55;78.81;102947.16;5035951;28;20037;-62
2023/01/29 01:32:43;;;;;;;20.73;11.82;;;;;;;0.58;79.36;102950.03;5036178;28;20029;-62
2023/01/29 01:35:09;;;;;;;21.95;12.25;;;;;;;0.66;78.92;102947.28;5036177;28;20471;-62
2023/01/29 01:37:38;;;;;;;23.65;13.02;;;;;;;0.71;78.05;102951.19;5036134;28;20034;-62
2023/01/29 01:40:11;;;;;;;23.80;12.52;;;;;;;0.69;77.94;102949.25;5036052;28;20025;-62
2023/01/29 01:42:37;;;;;;;25.05;12.40;;;;;;;0.68;77.94;102945.72;5036045;28;20107;-62
2023/01/29 01:45:06;;;;;;;22.63;12.55;;;;;;;0.69;77.58;102949.25;5035973;28;20022;-61
2023/01/29 01:47:50;;;;;;;26.25;12.55;;;;;;;0.57;78.48;102943.91;5036011;28;20029;-61
2023/01/29 01:50:32;;;;;;;23.98;12.80;;;;;;;0.40;78.40;102942.50;5019095;28;20029;-61
2023/01/29 01:53:03;;;;;;;26.17;13.60;;;;;;;0.29;78.48;102938.03;5035859;28;20029;-61
2023/01/29 01:55:33;;;;;;;24.20;12.60;;;;;;;0.24;79.64;102953.25;5045278;28;20504;-62
2023/01/29 01:58:05;;;;;;;25.92;13.27;;;;;;;0.27;79.63;102950.03;5075691;28;20266;-61
2023/01/29 02:00:31;;;;;;;25.52;13.20;;;;;;;0.27;78.98;102955.22;5075614;28;20024;-61
2023/01/29 02:11:18;;;;;;;25.90;13.43;;;;;;;0.26;79.10;102958.59;5075406;28;20547;-61
2023/01/29 02:13:44;;;;;;;25.80;14.18;;;;;;;0.19;79.83;102964.94;5074973;28;20060;-62
2023/01/29 02:16:10;;;;;;;24.38;13.02;;;;;;;0.16;80.64;102955.97;5075653;28;20040;-61
2023/01/29 02:18:36;;;;;;;28.13;14.20;;;;;;;0.18;80.01;102952.75;5075350;28;20489;-62
2023/01/29 02:21:24;;;;;;;28.25;14.43;;;;;;;0.29;79.92;102968.34;5057776;28;20107;-61
2023/01/29 02:24:00;;;;;;;27.73;13.77;;;;;;;0.34;79.79;102964.44;5075266;28;20056;-62
2023/01/29 02:26:38;;;;;;;27.30;14.35;;;;;;;0.34;79.36;102972.25;5075263;28;20108;-61
2023/01/29 02:29:21;;;;;;;28.02;13.88;;;;;;;0.34;80.24;102969.63;5075252;28;20063;-63
2023/01/29 02:31:55;;;;;;;28.50;14.50;;;;;;;0.26;79.67;102969.00;5075134;28;20032;-62
2023/01/29 02:37:37;;;;;;;31.27;15.25;;;;;;;0.20;80.70;102963.25;5061821;28;20051;-62
2023/01/29 02:40:11;;;;;;;30.63;15.23;;;;;;;0.19;80.44;102970.16;5056964;28;20523;-62
2023/01/29 02:42:56;;;;;;;30.58;15.45;;;;;;;0.20;80.89;102963.25;5074944;28;20029;-62
2023/01/29 02:45:34;;;;;;;25.13;14.35;;;;;;;0.26;80.70;102963.81;5057037;28;20043;-62
2023/01/29 02:48:01;;;;;;;30.00;15.55;;;;;;;0.27;80.88;102964.72;5074881;28;20456;-62
2023/01/29 02:50:43;;;;;;;28.20;14.23;;;;;;;0.21;80.84;102963.41;5056869;28;20022;-62
2023/01/29 02:53:14;;;;;;;;;;;;;;;0.19;80.67;102964.94;5075107;28;20104;-62
2023/01/29 02:55:59;;;;;;;30.33;14.77;;;;;;;0.08;81.49;102954.38;5074537;28;19939;-62
2023/01/29 02:58:48;;;;;;;29.77;14.35;;;;;;;0.07;81.96;102961.28;5074617;28;20254;-62
2023/01/29 03:01:29;;;;;;;28.50;14.30;;;;;;;0.16;81.68;102956.88;5033291;28;20185;-61
2023/01/29 03:04:00;;;;;;;28.52;14.45;;;;;;;0.23;81.71;102958.34;5074297;28;20028;-62
2023/01/29 03:06:34;;;;;;;30.67;15.63;;;;;;;0.30;81.12;102954.56;5074401;28;20040;-62
2023/01/29 03:09:25;;;;;;;31.00;16.08;;;;;;;0.29;81.13;102951.03;5074423;28;20036;-62
2023/01/29 03:11:57;;;;;;;30.25;15.27;;;;;;;0.25;81.63;102946.34;5074606;28;20412;-62
2023/01/29 03:15:10;;;;;;;28.15;15.25;;;;;;;0.30;82.23;102952.88;5074107;28;20056;-62
2023/01/29 03:17:28;;;;;;;28.67;15.02;;;;;;;0.39;81.39;102944.97;5073917;28;20093;-62
2023/01/29 03:19:55;;;;;;;26.83;14.18;;;;;;;0.42;81.80;102951.31;5073495;28;20070;-62
2023/01/29 03:22:22;;;;;;;27.48;15.13;;;;;;;0.45;81.99;102958.47;5073949;28;20021;-62
2023/01/29 03:33:22;;;;;;;28.70;15.55;;;;;;;0.43;81.85;102949.66;5074197;28;20127;-62
2023/01/29 03:36:17;;;;;;;30.98;15.90;;;;;;;0.41;81.63;102943.38;5073731;28;20017;-62
2023/01/29 03:38:43;;;;;;;28.38;15.95;;;;;;;0.39;81.58;102939.75;5071050;28;20047;-62
2023/01/29 03:41:32;;;;;;;27.73;14.60;;;;;;;0.47;81.37;102938.69;5073598;28;20028;-62
2023/01/29 03:44:39;;;;;;;30.08;15.05;;;;;;;0.49;81.55;102938.06;5073685;28;20028;-61
2023/01/29 03:47:12;;;;;;;28.52;15.38;;;;;;;0.40;81.90;102939.88;5073601;28;20035;-62
2023/01/29 03:49:47;;;;;;;28.88;15.13;;;;;;;0.36;82.38;102943.00;5073623;28;20028;-62
2023/01/29 03:52:19;;;;;;;30.58;14.65;;;;;;;0.41;82.89;102927.78;5073612;28;20048;-61
2023/01/29 03:55:05;;;;;;;27.38;14.68;;;;;;;0.56;82.32;102920.34;5055526;28;20040;-62
2023/01/29 03:57:44;;;;;;;28.20;14.48;;;;;;;0.59;82.48;102918.03;5073713;28;20055;-62
2023/01/29 04:00:30;;;;;;;31.98;15.07;;;;;;;0.56;82.23;102923.91;5073481;28;20475;-62
2023/01/29 04:03:01;;;;;;;29.63;15.38;;;;;;;0.59;82.08;102918.94;5073253;28;20031;-62
2023/01/29 04:05:34;;;;;;;31.80;16.45;;;;;;;0.49;81.75;102914.66;5073298;28;20021;-62
2023/01/29 04:08:05;;;;;;;;;;;;;;;0.55;81.48;102915.94;5055790;28;20052;-62
2023/01/29 04:10:34;;;;;;;30.08;15.77;;;;;;;0.41;82.05;102902.69;5073254;28;19908;-61
2023/01/29 04:13:07;;;;;;;27.42;15.10;;;;;;;0.40;83.05;102906.06;5073365;28;20082;-62
2023/01/29 04:15:41;;;;;;;32.38;16.42;;;;;;;0.32;83.69;102904.50;5073052;28;20405;-61
2023/01/29 04:18:07;;;;;;;32.38;16.20;;;;;;;0.29;83.10;102901.66;5055307;28;20035;-62
2023/01/29 04:20:33;;;;;;;28.20;14.52;;;;;;;0.36;83.73;102908.28;5073111;28;20381;-61
2023/01/29 04:22:59;;;;;;;27.13;14.82;;;;;;;0.34;83.46;102900.34;5072971;28;20067;-62
2023/01/29 04:25:32;;;;;;;29.70;15.65;;;;;;;0.31;83.73;102905.31;5055022;28;20470;-62
2023/01/29 04:28:11;;;;;;;29.55;15.48;;;;;;;0.23;84.03;102896.84;5073017;28;20512;-61
2023/01/29 04:30:53;;;;;;;30.08;16.27;;;;;;;0.25;83.96;102896.97;5072821;28;20502;-62
2023/01/29 04:33:39;;;;;;;28.55;14.45;;;;;;;0.34;85.11;102907.22;5072303;28;20030;-61
2023/01/29 04:36:10;;;;;;;32.05;15.50;;;;;;;0.45;83.40;102902.16;5073043;28;20039;-62
2023/01/29 04:39:07;;;;;;;28.73;14.98;;;;;;;0.50;83.93;102902.56;5073214;28;20029;-61
2023/01/29 04:41:36;;;;;;;29.92;15.15;;;;;;;0.53;83.40;102884.63;5072819;28;20171;-62
2023/01/29 04:44:15;;;;;;;33.03;16.25;;;;;;;0.60;83.41;102883.41;5072865;28;20074;-62
2023/01/29 04:47:01;;;;;;;31.55;15.93;;;;;;;0.60;83.02;102879.16;5072761;28;20469;-61
2023/01/29 04:49:30;;;;;;;32.53;16.88;;;;;;;0.58;83.33;102872.00;5072811;28;20469;-62
2023/01/29 04:52:21;;;;;;;30.73;16.10;;;;;;;0.56;84.02;102873.53;5073034;28;20147;-62
2023/01/29 04:55:19;;;;;;;27.55;14.57;;;;;;;0.60;83.80;102866.16;5054769;28;20036;-62
2023/01/29 04:57:47;;;;;;;33.58;16.52;;;;;;;0.60;83.89;102852.19;5072985;28;20020;-62
2023/01/29 05:00:41;;;;;;;32.55;16.55;;;;;;;0.65;83.82;102851.81;5072560;28;20029;-61
2023/01/29 05:03:08;;;;;;;31.48;16.17;;;;;;;0.67;83.18;102852.84;5069042;28;20075;-62
2023/01/29 05:05:35;;;;;;;34.78;17.60;;;;;;;0.63;83.56;102858.56;5072528;28;20029;-62
2023/01/29 05:08:02;;;;;;;30.77;16.48;;;;;;;0.65;83.72;102851.81;5072633;28;20108;-62
2023/01/29 05:10:28;;;;;;;32.08;16.80;;;;;;;0.67;83.76;102838.94;5072636;28;20412;-62
2023/01/29 05:12:59;;;;;;;31.83;16.45;;;;;;;0.73;83.97;102842.97;5054973;28;20031;-62
2023/01/29 05:15:31;;;;;;;29.95;15.48;;;;;;;0.81;83.77;102861.78;5072539;28;20040;-62
2023/01/29 05:18:00;;;;;;;32.67;16.58;;;;;;;0.85;83.43;102855.16;5054553;28;20097;-62
2023/01/29 05:20:26;;;;;;;32.78;17.55;;;;;;;0.81;84.06;102845.25;5072651;28;20545;-62
2023/01/29 05:22:52;;;;;;;35.35;16.95;;;;;;;0.81;83.56;102845.25;5072368;28;20032;-62
2023/01/29 05:25:22;;;;;;;35.65;18.58;;;;;;;0.77;83.42;102843.19;5072717;28;20025;-62
2023/01/29 05:28:15;;;;;;;32.92;16.90;;;;;;;0.74;84.41;102838.66;5072373;28;20099;-62
2023/01/29 05:30:42;;;;;;;31.92;16.58;;;;;;;0.77;84.28;102825.88;5072263;28;20028;-62
2023/01/29 05:33:18;;;;;;;35.45;17.25;;;;;;;0.74;84.69;102830.84;5072524;28;20033;-62
2023/01/29 05:35:44;;;;;;;33.53;17.55;;;;;;;0.71;84.39;102817.59;5072429;28;20028;-62
2023/01/29 05:38:10;;;;;;;36.25;18.60;;;;;;;0.67;84.37;102823.31;5072289;28;20027;-62
2023/01/29 05:40:36;;;;;;;34.30;16.70;;;;;;;0.71;84.50;102835.81;5072220;28;20024;-62
2023/01/29 05:43:03;;;;;;;34.45;17.90;;;;;;;0.75;84.75;102843.06;5072810;28;20021;-62
2023/01/29 05:45:29;;;;;;;31.92;16.80;;;;;;;0.80;84.68;102830.44;5076134;28;20074;-62
2023/01/29 05:47:56;;;;;;;37.10;17.88;;;;;;;0.72;84.26;102832.41;5075933;28;20021;-62
2023/01/29 05:50:22;;;;;;;34.22;17.60;;;;;;;0.71;84.65;102835.81;5057842;28;20027;-62
2023/01/29 05:52:47;;;;;;;36.80;18.77;;;;;;;0.71;85.05;102841.91;5075687;28;20515;-62
2023/01/29 05:55:13;;;;;;;32.80;17.65;;;;;;;0.69;84.89;102840.88;5075648;28;20108;-62
2023/01/29 05:57:39;;;;;;;35.45;18.05;;;;;;;0.74;84.94;102839.56;5057613;28;20032;-61
2023/01/29 06:00:05;;;;;;;36.33;17.38;;;;;;;0.73;84.67;102844.66;5075592;28;20508;-62
2023/01/29 06:02:31;;;;;;;33.58;17.63;;;;;;;0.77;84.94;102849.31;5075457;28;20051;-61
2023/01/29 06:04:56;;;;;;;36.42;17.55;;;;;;;0.83;84.67;102847.22;5075541;28;20025;-62
2023/01/29 06:07:22;;;;;;;36.28;18.92;;;;;;;0.90;84.57;102849.56;5075400;28;20032;-61
2023/01/29 06:09:47;;;;;;;38.08;19.02;;;;;;;0.90;84.64;102853.81;5075438;28;20031;-62
2023/01/29 06:12:13;;;;;;;37.13;18.98;;;;;;;0.87;84.43;102864.91;5040881;28;20166;-61
2023/01/29 06:14:38;;;;;;;36.67;19.08;;;;;;;0.86;85.01;102857.91;5075203;28;20079;-62
2023/01/29 06:17:03;;;;;;;36.72;19.35;;;;;;;0.84;85.15;102859.44;5075429;28;20043;-62
2023/01/29 06:19:29;;;;;;;33.95;17.63;;;;;;;0.82;85.47;102871.44;5075366;28;20035;-64
2023/01/29 06:21:54;;;;;;;37.35;19.48;;;;;;;0.83;85.20;102868.03;5040933;28;20106;-61
2023/01/29 06:24:20;;;;;;;37.70;19.40;;;;;;;0.86;84.91;102873.50;5075466;28;20495;-62
2023/01/29 06:26:45;;;;;;;37.88;19.60;;;;;;;0.91;84.85;102876.50;5075190;28;20107;-62
2023/01/29 06:29:11;;;;;;;36.22;18.88;;;;;;;0.92;85.05;102862.69;5075224;28;20029;-62
2023/01/29 06:31:36;;;;;;;38.97;20.52;;;;;;;0.90;84.79;102852.16;5074878;28;20032;-62
2023/01/29 06:34:02;;;;;;;41.08;20.42;;;;;;;0.88;85.24;102835.50;5075109;28;20033;-61
2023/01/29 06:36:28;;;;;;;40.28;20.75;;;;;;;0.81;85.11;102830.56;5075287;28;20024;-62
2023/01/29 06:38:53;;;;;;;39.00;21.23;;;;;;;0.77;85.93;102822.38;5074872;28;20025;-62
2023/01/29 06:41:23;;;;;;;38.53;21.08;;;;;;;0.75;85.76;102820.56;5074842;28;20028;-62
2023/01/29 06:43:49;;;;;;;40.72;20.80;;;;;;;0.70;86.54;102824.50;5074899;28;20028;-61
2023/01/29 06:46:14;;;;;;;37.33;20.17;;;;;;;0.71;86.48;102836.72;5075106;28;20483;-62
2023/01/29 06:48:40;;;;;;;39.55;21.00;;;;;;;0.75;86.57;102840.47;5074989;28;20028;-61
2023/01/29 06:51:07;;;;;;;38.15;20.58;;;;;;;0.79;86.92;102837.34;5074687;28;20525;-62
2023/01/29 06:53:34;;;;;;;35.45;19.23;;;;;;;0.82;86.12;102831.50;5074810;28;20040;-61
2023/01/29 06:55:59;;;;;;;42.85;20.63;;;;;;;0.81;86.21;102821.84;5055699;28;20381;-61
2023/01/29 06:58:25;;;;;;;39.17;19.67;;;;;;;0.79;86.43;102816.53;5074460;28;20028;-62
2023/01/29 07:00:51;;;;;;;38.78;19.40;;;;;;;0.79;86.96;102820.81;5074233;28;20107;-62
2023/01/29 07:03:17;;;;;;;35.42;19.60;;;;;;;0.84;86.62;102823.00;5074581;28;20051;-62
2023/01/29 07:05:49;;;;;;;38.33;19.95;;;;;;;0.85;86.57;102814.41;5074342;28;20374;-62
2023/01/29 07:08:14;;;;;;;43.03;22.85;;;;;;;0.83;86.29;102810.78;5074310;28;20032;-62
2023/01/29 07:10:40;;;;;;;37.85;19.45;;;;;;;0.82;86.34;102808.06;5074267;28;20109;-62
2023/01/29 07:13:05;;;;;;;37.85;19.88;;;;;;;0.86;86.96;102805.84;5074230;28;20399;-62
2023/01/29 07:15:31;;;;;;;36.08;19.25;;;;;;;0.95;86.36;102813.50;5073857;28;20157;-62
2023/01/29 07:17:57;;;;;;;31.83;16.73;;;;;;;1.04;86.00;102829.84;5074175;28;20385;-62
2023/01/29 07:20:25;;;;;;;39.22;19.77;;;;;;;1.12;86.21;102827.88;5074110;28;20029;-62
2023/01/29 07:22:51;;;;;;;36.50;19.10;;;;;;;1.14;85.48;102829.78;5074255;28;20028;-62
2023/01/29 07:25:16;;;;;;;37.35;18.48;;;;;;;1.15;85.94;102831.59;5074028;28;20480;-62
2023/01/29 07:27:41;;;;;;;40.22;21.17;;;;;;;1.18;85.14;102838.75;5073980;28;20465;-63
2023/01/29 07:30:07;;;;;;;38.75;20.05;;;;;;;1.17;85.67;102834.34;5073718;28;20032;-64
2023/01/29 07:32:33;;;;;;;38.47;20.33;;;;;;;1.18;85.22;102838.75;5074158;28;20036;-62
2023/01/29 07:34:58;;;;;;;35.47;18.65;;;;;;;1.18;85.08;102831.84;5073776;28;20371;-62
2023/01/29 07:37:23;;;;;;;37.08;20.08;;;;;;;1.17;85.22;102821.34;5074033;28;20032;-62
2023/01/29 07:39:49;;;;;;;41.97;20.65;;;;;;;1.13;85.38;102827.06;5073678;28;20020;-62
2023/01/29 07:42:14;;;;;;;41.33;21.95;;;;;;;1.08;85.13;102813.69;5073671;28;20028;-62
2023/01/29 07:44:39;;;;;;;43.20;19.92;;;;;;;1.09;85.31;102819.81;5073880;28;20497;-63
2023/01/29 07:47:05;;;;;;;39.75;20.23;;;;;;;1.09;85.53;102814.59;5073649;28;20036;-63
2023/01/29 07:49:30;;;;;;;37.95;19.35;;;;;;;1.09;85.25;102819.81;5073850;28;20584;-63
2023/01/29 07:51:56;;;;;;;35.38;20.10;;;;;;;1.08;85.20;102821.50;5073432;28;20032;-62
2023/01/29 07:54:21;;;;;;;36.78;18.50;;;;;;;1.07;85.16;102822.28;5073328;28;20031;-63
2023/01/29 07:56:46;;;;;;;35.88;18.65;;;;;;;1.15;85.33;102836.81;5055440;28;20031;-62
2023/01/29 07:59:12;;;;;;;38.40;20.80;;;;;;;1.11;85.16;102821.72;5073431;28;20367;-63
2023/01/29 08:01:37;;;;;;;33.67;17.90;;;;;;;1.10;85.63;102812.09;5073157;28;20075;-62
2023/01/29 08:04:03;;;;;;;39.13;19.73;;;;;;;1.08;85.39;102812.78;5073252;28;20078;-62
2023/01/29 08:06:28;;;;;;;36.80;19.73;;;;;;;1.10;85.68;102817.31;5073004;28;20051;-62
2023/01/29 08:08:54;;;;;;;40.13;20.00;;;;;;;1.11;85.80;102816.53;5073246;28;20055;-62
2023/01/29 08:11:20;;;;;;;38.33;19.95;;;;;;;1.10;86.32;102806.00;5073385;28;20032;-62
2023/01/29 08:13:45;;;;;;;37.28;19.65;;;;;;;1.10;85.99;102808.59;5073112;28;20040;-62
2023/01/29 08:16:10;;;;;;;36.45;19.85;;;;;;;1.14;85.66;102815.88;5073178;28;20473;-64
2023/01/29 08:18:37;;;;;;;39.70;20.17;;;;;;;1.17;85.48;102822.25;5073135;28;20025;-63
2023/01/29 08:21:02;;;;;;;37.90;21.27;;;;;;;1.16;85.37;102812.63;5055215;28;20547;-62
2023/01/29 08:23:28;;;;;;;37.55;20.75;;;;;;;1.20;85.41;102816.34;5073039;28;20036;-62
2023/01/29 08:25:54;;;;;;;35.22;18.90;;;;;;;1.22;85.37;102809.59;5073089;28;20057;-63
2023/01/29 08:28:19;;;;;;;37.58;20.20;;;;;;;1.22;84.60;102805.28;5072965;28;20118;-63
2023/01/29 08:30:45;;;;;;;35.78;19.25;;;;;;;1.19;84.58;102796.31;5072857;28;20036;-63
2023/01/29 08:33:10;;;;;;;36.75;18.17;;;;;;;1.16;85.46;102798.69;5073030;28;20077;-62
2023/01/29 08:35:36;;;;;;;37.25;18.95;;;;;;;1.12;85.62;102794.94;5072916;28;20027;-62
2023/01/29 08:38:03;;;;;;;37.65;19.35;;;;;;;1.13;85.47;102798.44;5072886;28;20035;-62
2023/01/29 08:40:33;;;;;;;35.47;18.38;;;;;;;1.14;85.61;102788.13;5072851;28;20110;-63
2023/01/29 08:43:04;;;;;;;36.00;18.50;;;;;;;1.15;85.69;102784.72;5073017;28;20032;-63
2023/01/29 08:45:32;;;;;;;34.72;18.48;;;;;;;1.14;85.26;102782.94;5072813;28;20542;-63
2023/01/29 08:47:58;;;;;;;37.72;20.13;;;;;;;1.14;85.63;102771.59;5055019;28;20099;-63
2023/01/29 08:50:23;;;;;;;36.15;19.95;;;;;;;1.14;85.41;102776.81;5072748;28;20430;-63
2023/01/29 08:52:49;;;;;;;33.42;17.85;;;;;;;1.18;85.82;102787.59;5054778;28;20032;-64
2023/01/29 08:55:14;;;;;;;34.45;18.20;;;;;;;1.19;85.17;102783.28;5072621;28;20498;-63
2023/01/29 08:57:39;;;;;;;34.70;18.30;;;;;;;1.18;84.91;102779.78;5072793;28;20027;-63
2023/01/29 09:00:06;;;;;;;38.88;17.83;;;;;;;1.15;84.61;102776.94;5072853;28;20039;-63
2023/01/29 09:02:32;;;;;;;32.72;16.80;;;;;;;1.15;85.28;102776.94;5054248;28;20029;-63
2023/01/29 09:04:57;;;;;;;33.25;18.02;;;;;;;1.16;84.55;102770.97;5072684;28;20074;-63
2023/01/29 09:07:22;;;;;;;35.00;19.38;;;;;;;1.15;85.25;102773.41;5072738;28;20025;-63
2023/01/29 09:09:48;;;;;;;33.20;19.13;;;;;;;1.19;85.13;102775.47;5072571;28;20518;-64
2023/01/29 09:12:13;;;;;;;35.17;17.90;;;;;;;1.19;84.58;102775.47;5072770;28;20025;-63
2023/01/29 09:14:39;;;;;;;35.83;17.98;;;;;;;1.24;84.43;102763.72;5072522;28;20061;-63
2023/01/29 09:17:04;;;;;;;33.72;17.13;;;;;;;1.27;84.66;102769.19;5072579;28;20063;-63
2023/01/29 09:19:29;;;;;;;31.65;17.30;;;;;;;1.32;84.59;102765.25;5075583;28;20359;-63
2023/01/29 09:21:55;;;;;;;30.13;15.68;;;;;;;1.36;84.12;102761.19;5076397;28;20024;-62
2023/01/29 09:24:20;;;;;;;32.15;17.95;;;;;;;1.39;84.35;102761.44;5076354;28;20036;-63
2023/01/29 09:26:45;;;;;;;30.45;16.55;;;;;;;1.40;84.17;102758.03;5076462;28;20025;-62
2023/01/29 09:29:11;;;;;;;29.55;16.17;;;;;;;1.44;84.03;102754.88;5076252;28;20024;-62
2023/01/29 09:31:36;;;;;;;27.98;14.73;;;;;;;1.45;83.74;102759.31;5076121;28;20523;-62
2023/01/29 09:34:02;;;;;;;32.47;16.85;;;;;;;1.43;83.72;102743.56;5076239;28;20445;-65
2023/01/29 09:36:27;;;;;;;32.97;16.48;;;;;;;1.50;83.19;102753.69;5076142;28;20032;-62
2023/01/29 09:38:52;;;;;;;30.48;18.45;;;;;;;1.48;83.44;102756.94;5076022;28;20123;-62
2023/01/29 09:41:25;;;;;;;30.77;17.63;;;;;;;1.47;83.70;102763.84;5075968;28;20038;-63
2023/01/29 09:43:54;;;;;;;27.33;15.85;;;;;;;1.48;83.32;102756.94;5076160;28;20036;-62
2023/01/29 09:46:39;;;;;;;31.67;18.08;;;;;;;1.52;83.50;102759.00;5076021;28;20500;-62
2023/01/29 09:49:25;;;;;;;31.42;16.98;;;;;;;1.51;83.43;102765.00;5075913;28;20024;-62
2023/01/29 09:51:56;;;;;;;32.25;15.35;;;;;;;1.54;82.81;102759.13;5075810;28;20179;-63
2023/01/29 09:54:28;;;;;;;29.30;16.40;;;;;;;1.56;83.05;102753.25;5075868;28;20103;-63
2023/01/29 09:56:55;;;;;;;26.90;14.82;;;;;;;1.61;83.04;102751.00;5075998;28;20071;-63
2023/01/29 09:59:24;;;;;;;30.90;15.05;;;;;;;1.66;83.16;102753.16;5058043;28;20029;-63
2023/01/29 10:02:00;;;;;;;29.80;15.55;;;;;;;1.68;83.00;102748.09;5075445;28;20115;-62
2023/01/29 10:04:59;;;;;;;30.75;16.83;;;;;;;1.70;83.08;102751.69;5075737;28;20068;-62
2023/01/29 10:07:41;;;;;;;27.98;15.25;;;;;;;1.70;82.40;102757.81;5057755;28;20027;-63
2023/01/29 10:10:13;;;;;;;28.40;15.02;;;;;;;1.75;82.16;102758.16;5057981;28;20064;-62
2023/01/29 10:13:04;;;;;;;26.88;14.23;;;;;;;1.74;82.13;102758.97;5075463;28;20032;-62
2023/01/29 10:15:42;;;;;;;30.85;16.42;;;;;;;1.72;81.69;102766.69;5075348;28;20044;-63
2023/01/29 10:18:43;;;;;;;26.77;14.75;;;;;;;1.77;82.38;102774.84;5075459;28;20024;-62
2023/01/29 10:21:36;;;;;;;32.95;16.17;;;;;;;1.76;82.18;102760.00;5075493;28;20028;-62
2023/01/29 10:24:07;;;;;;;31.05;15.70;;;;;;;1.71;82.12;102758.72;5075457;28;20550;-62
2023/01/29 10:26:36;;;;;;;29.35;16.27;;;;;;;1.70;82.37;102757.81;5075277;28;20025;-61
2023/01/29 10:29:06;;;;;;;30.83;16.27;;;;;;;1.72;82.36;102757.94;5075155;28;20028;-61
2023/01/29 10:31:37;;;;;;;28.80;14.52;;;;;;;1.73;82.47;102759.75;5075048;28;20040;-62
2023/01/29 10:34:18;;;;;;;31.33;16.42;;;;;;;1.75;82.09;102750.34;5075164;28;20060;-63
2023/01/29 10:36:46;;;;;;;28.55;15.27;;;;;;;1.74;81.69;102757.25;5075216;28;20055;-63
2023/01/29 10:39:17;;;;;;;30.63;15.15;;;;;;;1.74;81.69;102757.25;5075114;28;20028;-62
2023/01/29 10:42:07;;;;;;;29.83;16.80;;;;;;;1.79;81.67;102756.72;5074912;28;20063;-62
2023/01/29 10:45:08;;;;;;;30.77;15.75;;;;;;;1.76;82.00;102746.97;5075005;28;20485;-62
2023/01/29 10:48:05;;;;;;;31.00;17.50;;;;;;;1.75;82.21;102742.53;5043475;28;20040;-62
2023/01/29 10:50:47;;;;;;;30.58;15.50;;;;;;;1.75;81.66;102739.91;5040515;28;20474;-63
2023/01/29 10:53:25;;;;;;;31.13;15.73;;;;;;;1.76;82.46;102739.16;5075042;28;20040;-62
2023/01/29 10:56:10;;;;;;;34.35;16.20;;;;;;;1.82;82.18;102736.09;5074605;28;20032;-62
2023/01/29 10:58:54;;;;;;;32.35;17.48;;;;;;;1.83;81.95;102746.63;5056833;28;20028;-62
2023/01/29 11:01:19;;;;;;;29.75;16.23;;;;;;;1.86;81.87;102732.94;5034375;28;20021;-62
2023/01/29 11:03:51;;;;;;;28.58;14.85;;;;;;;1.87;81.67;102720.00;5034657;28;20029;-61
2023/01/29 11:06:27;;;;;;;31.38;17.55;;;;;;;1.89;81.83;102717.53;5034561;28;20040;-61
2023/01/29 11:09:18;;;;;;;33.78;16.55;;;;;;;1.94;82.01;102716.19;5033572;28;20087;-62
2023/01/29 11:11:48;;;;;;;30.77;16.98;;;;;;;1.96;81.69;102699.84;5034570;28;20033;-62
2023/01/29 11:14:23;;;;;;;28.52;16.10;;;;;;;2.00;81.39;102699.28;5034377;28;20503;-61
2023/01/29 11:16:49;;;;;;;28.92;15.50;;;;;;;2.03;81.87;102696.00;5034422;28;20046;-62
2023/01/29 11:19:15;;;;;;;28.63;15.38;;;;;;;2.07;81.48;102691.94;5034365;28;20026;-61
2023/01/29 11:21:58;;;;;;;28.80;15.45;;;;;;;2.10;81.40;102677.44;5034214;28;20021;-61
2023/01/29 11:24:24;;;;;;;25.92;14.80;;;;;;;2.16;81.10;102674.38;5034285;28;20502;-62
2023/01/29 11:26:53;;;;;;;26.73;15.85;;;;;;;2.20;80.93;102677.31;5034175;28;20022;-60
2023/01/29 11:29:41;;;;;;;29.65;16.15;;;;;;;2.24;80.53;102673.25;5033619;28;20383;-62
2023/01/29 11:32:18;;;;;;;26.33;14.18;;;;;;;2.26;80.77;102663.81;5034072;28;20478;-61
2023/01/29 11:35:14;;;;;;;26.48;14.93;;;;;;;2.32;80.61;102658.16;5032820;28;20064;-61
2023/01/29 11:37:42;;;;;;;25.85;14.77;;;;;;;2.34;79.70;102651.34;5034038;28;20033;-61
2023/01/29 11:40:32;;;;;;;28.70;15.77;;;;;;;2.34;80.34;102654.84;5034073;28;20030;-62
2023/01/29 11:43:11;;;;;;;27.42;14.95;;;;;;;2.38;79.59;102656.88;5033633;28;20406;-61
2023/01/29 11:45:39;;;;;;;26.15;13.52;;;;;;;2.38;79.24;102638.63;5033579;28;20059;-61
2023/01/29 11:48:12;;;;;;;24.38;14.10;;;;;;;2.39;78.80;102640.44;5033676;28;20029;-62
2023/01/29 11:50:38;;;;;;;25.88;14.18;;;;;;;2.42;78.79;102631.94;5016056;28;20052;-62
2023/01/29 11:53:05;;;;;;;25.35;14.02;;;;;;;2.45;78.64;102613.91;5033623;28;20025;-64
2023/01/29 11:55:35;;;;;;;24.95;14.65;;;;;;;2.47;79.14;102612.28;5033530;28;20029;-62
2023/01/29 11:58:15;;;;;;;27.27;14.70;;;;;;;2.53;78.41;102606.59;5033554;28;20030;-62
2023/01/29 12:00:46;;;;;;;24.00;13.07;;;;;;;2.58;78.40;102600.03;5033424;28;20036;-62